Weather at St. John's International Airport

Public forecast

Using degrees Celsius for public forecast. Weather courtesy of forecast.io.

Current aviation weather report (METAR) for St. John's International Airport

Report is more than 6 hours old.

Retrieved 2020/10/29 15:00 UTC (21 hours ago):

CYYT 291500Z 30010G16KT 15SM FEW020 BKN092 04/M01 A2977 RMK SC2AC3 SLP089

Aviation forecast (TAF) for St. John's International Airport

Retrieved 2020/10/30 12:42 UTC (0 seconds ago):

TAF TAF CYYT 301138Z 3012/3112 32015G25KT P6SM BKN040 BKN180 TEMPO 3012/3017 SCT040 BKN180 FM301700 31012G22KT P6SM SCT030 SCT160 FM302000 34012G22KT P6SM BKN030 FM311000 36012G22KT 5SM -SHSN BKN020 RMK NXT FCST BY 301800Z